createdAt,value
2018-03-31T00:02:15.892Z,78.30
2018-03-31T00:04:43.251Z,78.30
2018-03-31T00:07:10.605Z,78.30
2018-03-31T00:09:37.996Z,78.00
2018-03-31T00:12:05.366Z,78.10
2018-03-31T00:14:32.705Z,78.10
2018-03-31T00:17:00.261Z,78.30
2018-03-31T00:19:27.598Z,78.30
2018-03-31T00:21:55.053Z,78.40
2018-03-31T00:24:22.415Z,78.70
2018-03-31T00:26:49.799Z,78.50
2018-03-31T00:29:17.181Z,78.60
2018-03-31T00:31:44.515Z,78.90
2018-03-31T00:34:11.918Z,79.00
2018-03-31T00:36:39.347Z,78.90
2018-03-31T00:39:07.463Z,77.60
2018-03-31T00:41:34.811Z,77.90
2018-03-31T00:44:02.167Z,78.00
2018-03-31T00:46:29.707Z,78.00
2018-03-31T00:48:57.067Z,77.90
2018-03-31T00:51:24.413Z,77.70
2018-03-31T00:53:51.767Z,77.80
2018-03-31T00:56:19.136Z,78.00
2018-03-31T00:58:46.516Z,78.40
2018-03-31T01:01:13.863Z,78.10
2018-03-31T01:03:41.219Z,77.90
2018-03-31T01:06:08.629Z,77.90
2018-03-31T01:08:35.992Z,77.90
2018-03-31T01:11:03.367Z,77.80
2018-03-31T01:13:30.723Z,77.50
2018-03-31T01:15:58.080Z,77.90
2018-03-31T01:18:25.418Z,78.00
2018-03-31T01:20:52.774Z,78.00
2018-03-31T01:23:20.289Z,78.30
2018-03-31T01:25:47.623Z,78.40
2018-03-31T01:28:14.993Z,78.30
2018-03-31T01:30:42.320Z,78.30
2018-03-31T01:33:09.779Z,78.60
2018-03-31T01:35:37.145Z,78.80
2018-03-31T01:38:04.522Z,79.00
2018-03-31T01:40:31.874Z,78.80
2018-03-31T01:42:59.268Z,78.60
2018-03-31T01:45:26.673Z,78.80
2018-03-31T01:47:54.039Z,79.00
2018-03-31T01:50:22.169Z,78.60
2018-03-31T01:52:49.566Z,78.60
2018-03-31T01:55:16.920Z,78.40
2018-03-31T01:57:44.413Z,78.80
2018-03-31T02:00:13.241Z,79.00
2018-03-31T02:02:40.617Z,79.00
2018-03-31T02:05:07.957Z,79.20
2018-03-31T02:07:35.663Z,79.40
2018-03-31T02:10:03.765Z,79.30
2018-03-31T02:12:31.211Z,79.30
2018-03-31T02:14:58.581Z,78.80
2018-03-31T02:17:25.941Z,78.80
2018-03-31T02:19:53.332Z,78.70
2018-03-31T02:22:20.679Z,78.40
2018-03-31T02:24:48.026Z,78.10
2018-03-31T02:27:15.391Z,78.20
2018-03-31T02:29:42.757Z,78.30
2018-03-31T02:32:10.183Z,78.40
2018-03-31T02:34:37.549Z,79.30
2018-03-31T02:37:04.906Z,78.60
2018-03-31T02:39:32.272Z,78.50
2018-03-31T02:41:59.649Z,78.70
2018-03-31T02:44:27.017Z,78.60
2018-03-31T02:46:54.352Z,78.70
2018-03-31T02:49:21.714Z,78.40
2018-03-31T02:51:49.097Z,78.60
2018-03-31T02:54:16.473Z,78.60
2018-03-31T02:56:43.836Z,78.70
2018-03-31T02:59:11.169Z,78.60
2018-03-31T03:01:38.525Z,78.70
2018-03-31T03:04:05.885Z,78.00
2018-03-31T03:06:33.259Z,77.80
2018-03-31T03:09:00.623Z,78.40
2018-03-31T03:11:28.728Z,78.70
2018-03-31T03:13:56.847Z,78.60
2018-03-31T03:16:24.195Z,78.60
2018-03-31T03:18:51.549Z,79.40
2018-03-31T03:21:18.891Z,78.30
2018-03-31T03:23:46.256Z,78.40
2018-03-31T03:26:13.612Z,78.50
2018-03-31T03:28:40.970Z,78.40
2018-03-31T03:31:08.324Z,78.40
2018-03-31T03:33:35.808Z,78.20
2018-03-31T03:36:03.172Z,78.40
2018-03-31T03:38:30.528Z,78.50
2018-03-31T03:40:57.912Z,78.50
2018-03-31T03:43:25.262Z,78.50
2018-03-31T03:45:53.389Z,78.60
2018-03-31T03:48:20.728Z,78.50
2018-03-31T03:50:48.084Z,78.60
2018-03-31T03:53:15.453Z,78.90
2018-03-31T03:55:42.790Z,78.90
2018-03-31T03:58:10.239Z,78.90
2018-03-31T04:00:37.603Z,78.70
2018-03-31T04:03:05.052Z,79.90
2018-03-31T04:05:32.401Z,79.00
2018-03-31T04:07:59.788Z,78.80
2018-03-31T04:10:27.139Z,78.70
2018-03-31T04:12:54.489Z,78.70
2018-03-31T04:15:21.841Z,79.00
2018-03-31T04:17:49.909Z,79.10
2018-03-31T04:20:17.255Z,79.10
2018-03-31T04:22:44.603Z,79.10
2018-03-31T04:25:12.675Z,79.20
2018-03-31T04:27:40.067Z,79.40
2018-03-31T04:30:07.459Z,79.60
2018-03-31T04:32:34.812Z,79.40
2018-03-31T04:35:02.942Z,79.50
2018-03-31T04:37:30.729Z,79.30
2018-03-31T04:39:58.076Z,79.40
2018-03-31T04:42:25.437Z,79.70
2018-03-31T04:44:52.781Z,80.00
2018-03-31T04:47:20.167Z,80.10
2018-03-31T04:49:47.579Z,80.40
2018-03-31T04:52:14.964Z,80.50
2018-03-31T04:54:42.332Z,80.60
2018-03-31T04:57:10.590Z,80.90
2018-03-31T04:59:37.968Z,80.90
2018-03-31T05:02:05.320Z,81.00
2018-03-31T05:04:32.684Z,80.90
2018-03-31T05:07:00.181Z,81.00
2018-03-31T05:09:27.546Z,81.00
2018-03-31T05:11:54.909Z,81.00
2018-03-31T05:14:22.290Z,81.00
2018-03-31T05:16:49.728Z,81.20
2018-03-31T05:19:17.129Z,81.30
2018-03-31T05:21:46.215Z,81.40
2018-03-31T05:24:13.560Z,81.50
2018-03-31T05:26:40.955Z,81.50
2018-03-31T05:29:08.296Z,81.60
2018-03-31T05:31:35.666Z,81.70
2018-03-31T05:34:03.013Z,81.80
2018-03-31T05:36:30.435Z,81.90
2018-03-31T05:38:57.779Z,81.80
2018-03-31T05:41:25.903Z,81.70
2018-03-31T05:43:53.257Z,81.60
2018-03-31T05:46:20.658Z,81.80
2018-03-31T05:48:48.592Z,81.70
2018-03-31T05:51:15.943Z,81.80
2018-03-31T05:53:43.291Z,81.90
2018-03-31T05:56:10.647Z,81.90
2018-03-31T05:58:38.006Z,81.70
2018-03-31T06:01:06.132Z,82.20
2018-03-31T06:03:34.274Z,81.70
2018-03-31T06:06:01.657Z,81.70
2018-03-31T06:08:29.003Z,81.80
2018-03-31T06:10:56.376Z,81.80
2018-03-31T06:13:23.727Z,81.80
2018-03-31T06:15:51.091Z,81.90
2018-03-31T06:18:18.441Z,82.00
2018-03-31T06:20:45.941Z,82.00
2018-03-31T06:23:14.214Z,81.80
2018-03-31T06:25:41.564Z,81.80
2018-03-31T06:28:08.920Z,82.00
2018-03-31T06:30:36.263Z,82.20
2018-03-31T06:33:03.633Z,82.30
2018-03-31T06:35:31.007Z,82.40
2018-03-31T06:37:58.364Z,82.40
2018-03-31T06:40:25.720Z,82.50
2018-03-31T06:42:53.114Z,82.50
2018-03-31T06:45:20.644Z,82.50
2018-03-31T06:47:47.984Z,82.60
2018-03-31T06:50:15.333Z,82.70
2018-03-31T06:52:42.693Z,82.70
2018-03-31T06:55:10.043Z,82.70
2018-03-31T06:57:37.432Z,82.80
2018-03-31T07:00:04.805Z,82.90
2018-03-31T07:02:32.151Z,83.00
2018-03-31T07:05:00.405Z,82.70
2018-03-31T07:07:28.525Z,82.20
2018-03-31T07:09:55.878Z,82.70
2018-03-31T07:12:23.250Z,82.70
2018-03-31T07:14:50.772Z,82.70
2018-03-31T07:17:18.149Z,82.70
2018-03-31T07:19:45.483Z,82.80
2018-03-31T07:22:12.914Z,82.70
2018-03-31T07:24:40.294Z,82.80
2018-03-31T07:27:07.694Z,82.80
2018-03-31T07:29:35.073Z,82.70
2018-03-31T07:32:02.423Z,82.60
2018-03-31T07:34:30.004Z,82.60
2018-03-31T07:36:57.358Z,82.50
2018-03-31T07:39:25.464Z,82.60
2018-03-31T07:41:52.824Z,82.50
2018-03-31T07:44:20.199Z,82.60
2018-03-31T07:46:47.571Z,82.70
2018-03-31T07:49:14.926Z,82.90
2018-03-31T07:51:42.325Z,83.30
2018-03-31T07:54:09.730Z,83.60
2018-03-31T07:56:37.267Z,83.70
2018-03-31T07:59:04.739Z,83.70
2018-03-31T08:01:32.098Z,83.60
2018-03-31T08:03:59.457Z,83.70
2018-03-31T08:06:27.248Z,83.90
2018-03-31T08:08:55.451Z,84.20
2018-03-31T08:11:23.053Z,84.20
2018-03-31T08:13:50.574Z,84.30
2018-03-31T08:16:17.908Z,84.50
2018-03-31T08:18:46.072Z,84.50
2018-03-31T08:21:13.436Z,85.00
2018-03-31T08:23:40.902Z,84.60
2018-03-31T08:26:08.246Z,84.70
2018-03-31T08:28:35.997Z,84.30
2018-03-31T08:31:04.107Z,84.30
2018-03-31T08:33:31.558Z,84.30
2018-03-31T08:35:58.911Z,84.50
2018-03-31T08:38:26.273Z,84.70
2018-03-31T08:40:53.687Z,85.00
2018-03-31T08:43:21.803Z,85.00
2018-03-31T08:45:49.167Z,85.00
2018-03-31T08:48:16.516Z,85.00
2018-03-31T08:50:43.880Z,84.90
2018-03-31T08:53:11.225Z,84.70
2018-03-31T08:55:38.723Z,84.60
2018-03-31T08:58:06.083Z,84.60
2018-03-31T09:00:33.538Z,84.70
2018-03-31T09:03:01.833Z,84.60
2018-03-31T09:05:29.178Z,84.40
2018-03-31T09:07:59.251Z,84.50
2018-03-31T09:10:26.621Z,84.60
2018-03-31T09:12:54.009Z,84.90
2018-03-31T09:15:21.474Z,84.80
2018-03-31T09:17:48.848Z,84.90
2018-03-31T09:20:16.205Z,84.80
2018-03-31T09:22:45.782Z,84.70
2018-03-31T09:25:10.979Z,84.80
2018-03-31T09:27:38.326Z,85.00
2018-03-31T09:30:05.678Z,85.00
2018-03-31T09:32:33.152Z,85.20
2018-03-31T09:35:08.298Z,84.50
2018-03-31T09:37:35.640Z,84.20
2018-03-31T09:40:03.024Z,84.30
2018-03-31T09:42:30.700Z,84.50
2018-03-31T09:44:58.104Z,85.00
2018-03-31T09:47:25.461Z,85.10
2018-03-31T09:49:52.810Z,85.00
2018-03-31T09:52:20.430Z,84.50
2018-03-31T09:54:47.784Z,84.00
2018-03-31T09:57:15.149Z,84.10
2018-03-31T09:59:42.493Z,84.10
2018-03-31T10:02:09.884Z,84.40
2018-03-31T10:04:37.239Z,84.70
2018-03-31T10:07:04.586Z,84.70
2018-03-31T10:09:31.960Z,84.70
2018-03-31T10:11:59.359Z,84.60
2018-03-31T10:14:26.727Z,84.40
2018-03-31T10:16:54.226Z,84.40
2018-03-31T10:19:21.569Z,84.60
2018-03-31T10:21:48.914Z,85.10
2018-03-31T10:24:16.291Z,85.50
2018-03-31T10:26:43.650Z,85.30
2018-03-31T10:29:11.025Z,84.80
2018-03-31T10:31:38.419Z,84.70
2018-03-31T10:34:05.780Z,84.60
2018-03-31T10:36:33.193Z,84.60
2018-03-31T10:39:01.349Z,84.30
2018-03-31T10:41:28.714Z,84.30
2018-03-31T10:43:56.055Z,84.20
2018-03-31T10:46:23.444Z,84.00
2018-03-31T10:48:50.793Z,83.90
2018-03-31T10:51:18.144Z,83.80
2018-03-31T10:53:45.601Z,83.70
2018-03-31T10:56:12.944Z,83.80
2018-03-31T10:58:40.340Z,83.90
2018-03-31T11:01:07.709Z,84.20
2018-03-31T11:03:35.085Z,84.30
2018-03-31T11:06:02.641Z,84.20
2018-03-31T11:08:30.016Z,84.60
2018-03-31T11:10:57.384Z,84.90
2018-03-31T11:13:24.724Z,85.00
2018-03-31T11:15:52.103Z,85.00
2018-03-31T11:18:19.530Z,84.80
2018-03-31T11:20:47.305Z,84.50
2018-03-31T11:23:14.665Z,84.70
2018-03-31T11:25:42.021Z,84.40
2018-03-31T11:28:09.375Z,84.30
2018-03-31T11:30:37.488Z,84.10
2018-03-31T11:33:05.125Z,84.00
2018-03-31T11:35:32.585Z,83.80
2018-03-31T11:38:00.029Z,83.90
2018-03-31T11:40:28.381Z,83.80
2018-03-31T11:42:55.763Z,83.70
2018-03-31T11:45:23.117Z,83.50
2018-03-31T11:47:50.463Z,83.90
2018-03-31T11:50:17.837Z,84.00
2018-03-31T11:52:45.202Z,84.10
2018-03-31T11:55:12.879Z,84.20
2018-03-31T11:57:40.220Z,84.30
2018-03-31T12:00:07.717Z,84.50
2018-03-31T12:02:35.106Z,83.60
2018-03-31T12:05:02.482Z,83.50
2018-03-31T12:07:29.957Z,83.10
2018-03-31T12:09:57.302Z,82.90
2018-03-31T12:12:24.718Z,83.10
2018-03-31T12:14:52.072Z,83.10
2018-03-31T12:17:19.432Z,83.30
2018-03-31T12:19:46.793Z,83.00
2018-03-31T12:22:14.929Z,83.10
2018-03-31T12:24:42.321Z,83.10
2018-03-31T12:27:09.704Z,83.20
2018-03-31T12:29:37.039Z,83.20
2018-03-31T12:32:04.392Z,83.10
2018-03-31T12:34:31.757Z,82.20
2018-03-31T12:36:59.106Z,81.80
2018-03-31T12:39:26.468Z,81.70
2018-03-31T12:41:53.862Z,81.50
2018-03-31T12:44:21.223Z,81.30
2018-03-31T12:46:48.589Z,80.80
2018-03-31T12:49:15.959Z,80.70
2018-03-31T12:51:43.315Z,80.90
2018-03-31T12:54:11.447Z,81.00
2018-03-31T12:56:38.816Z,81.00
2018-03-31T12:59:06.174Z,81.00
2018-03-31T13:01:33.545Z,81.20
2018-03-31T13:04:01.660Z,82.00
2018-03-31T13:06:29.017Z,81.40
2018-03-31T13:08:56.360Z,81.60
2018-03-31T13:11:23.734Z,81.80
2018-03-31T13:13:51.099Z,81.50
2018-03-31T13:16:18.453Z,81.50
2018-03-31T13:18:45.890Z,81.40
2018-03-31T13:21:13.246Z,81.20
2018-03-31T13:23:40.960Z,81.10
2018-03-31T13:26:08.313Z,80.80
2018-03-31T13:28:35.689Z,80.50
2018-03-31T13:31:03.058Z,80.20
2018-03-31T13:33:30.412Z,80.10
2018-03-31T13:35:57.855Z,80.00
2018-03-31T13:38:25.223Z,79.90
2018-03-31T13:40:52.576Z,80.00
2018-03-31T13:43:19.954Z,80.90
2018-03-31T13:45:47.335Z,80.10
2018-03-31T13:48:14.712Z,80.20
2018-03-31T13:50:42.072Z,80.30
2018-03-31T13:53:09.452Z,80.50
2018-03-31T13:55:36.794Z,80.60
2018-03-31T13:58:04.932Z,80.60
2018-03-31T14:00:32.308Z,80.60
2018-03-31T14:02:59.968Z,80.40
2018-03-31T14:05:27.314Z,80.00
2018-03-31T14:07:54.697Z,79.50
2018-03-31T14:10:22.052Z,79.40
2018-03-31T14:12:49.419Z,79.30
2018-03-31T14:15:16.786Z,79.50
2018-03-31T14:17:44.131Z,79.50
2018-03-31T14:20:11.531Z,79.50
2018-03-31T14:22:38.889Z,79.50
2018-03-31T14:25:06.265Z,79.20
2018-03-31T14:27:34.457Z,78.70
2018-03-31T14:30:01.837Z,78.70
2018-03-31T14:32:29.200Z,78.10
2018-03-31T14:34:56.562Z,77.80
2018-03-31T14:37:23.933Z,78.20
2018-03-31T14:39:51.292Z,78.40
2018-03-31T14:42:18.757Z,78.70
2018-03-31T14:44:46.116Z,78.40
2018-03-31T14:47:13.489Z,78.40
2018-03-31T14:49:40.917Z,78.40
2018-03-31T14:52:08.294Z,78.40
2018-03-31T14:54:36.424Z,78.60
2018-03-31T14:57:03.771Z,78.60
2018-03-31T14:59:31.138Z,78.60
2018-03-31T15:01:59.383Z,78.80
2018-03-31T15:04:26.763Z,78.90
2018-03-31T15:06:54.145Z,79.00
2018-03-31T15:09:22.347Z,79.00
2018-03-31T15:11:49.746Z,79.00
2018-03-31T15:14:17.116Z,78.80
2018-03-31T15:16:44.470Z,78.60
2018-03-31T15:19:11.816Z,78.40
2018-03-31T15:21:39.598Z,78.40
2018-03-31T15:24:06.963Z,78.50
2018-03-31T15:26:34.316Z,78.30
2018-03-31T15:29:02.427Z,78.30
2018-03-31T15:31:29.810Z,78.40
2018-03-31T15:33:57.169Z,78.30
2018-03-31T15:36:24.785Z,78.30
2018-03-31T15:38:52.184Z,78.20
2018-03-31T15:41:19.563Z,78.20
2018-03-31T15:43:47.314Z,77.40
2018-03-31T15:46:14.661Z,77.00
2018-03-31T15:48:42.084Z,77.10
2018-03-31T15:51:09.375Z,76.90
2018-03-31T15:53:36.807Z,76.50
2018-03-31T15:56:04.165Z,76.40
2018-03-31T15:58:31.536Z,76.20
2018-03-31T16:00:58.893Z,76.30
2018-03-31T16:03:26.255Z,76.20
2018-03-31T16:05:53.610Z,76.50
2018-03-31T16:08:21.017Z,76.80
2018-03-31T16:10:48.395Z,76.80
2018-03-31T16:13:15.759Z,76.40
2018-03-31T16:15:43.255Z,76.10
2018-03-31T16:18:10.609Z,77.50
2018-03-31T16:20:37.976Z,77.80
2018-03-31T16:23:06.093Z,78.00
2018-03-31T16:25:33.432Z,78.00
2018-03-31T16:28:00.787Z,78.10
2018-03-31T16:30:28.145Z,77.90
2018-03-31T16:32:55.506Z,77.60
2018-03-31T16:35:22.851Z,77.20
2018-03-31T16:37:50.220Z,77.30
2018-03-31T16:40:17.570Z,77.00
2018-03-31T16:42:44.914Z,77.10
2018-03-31T16:45:12.374Z,76.60
2018-03-31T16:47:39.712Z,76.70
2018-03-31T16:50:07.098Z,76.30
2018-03-31T16:52:34.448Z,76.20
2018-03-31T16:55:01.826Z,76.30
2018-03-31T16:57:29.174Z,76.70
2018-03-31T16:59:56.524Z,76.60
2018-03-31T17:02:23.888Z,76.40
2018-03-31T17:04:51.255Z,76.20
2018-03-31T17:07:18.623Z,76.30
2018-03-31T17:09:46.135Z,76.40
2018-03-31T17:12:13.492Z,76.30
2018-03-31T17:14:40.854Z,76.30
2018-03-31T17:17:08.222Z,76.30
2018-03-31T17:19:35.574Z,76.40
2018-03-31T17:22:02.927Z,76.60
2018-03-31T17:24:30.291Z,76.80
2018-03-31T17:26:57.656Z,76.90
2018-03-31T17:29:25.009Z,77.00
2018-03-31T17:31:52.444Z,77.00
2018-03-31T17:34:19.807Z,76.90
2018-03-31T17:36:47.177Z,77.10
2018-03-31T17:39:14.516Z,76.90
2018-03-31T17:41:41.879Z,76.90
2018-03-31T17:44:09.258Z,77.10
2018-03-31T17:46:36.630Z,76.90
2018-03-31T17:49:04.020Z,77.00
2018-03-31T17:51:31.352Z,77.10
2018-03-31T17:53:58.688Z,77.30
2018-03-31T17:56:26.059Z,77.30
2018-03-31T17:58:53.521Z,77.40
2018-03-31T18:01:20.904Z,77.50
2018-03-31T18:03:48.262Z,77.70
2018-03-31T18:06:15.658Z,77.50
2018-03-31T18:08:42.994Z,77.70
2018-03-31T18:11:10.687Z,77.70
2018-03-31T18:13:38.096Z,77.70
2018-03-31T18:16:05.442Z,77.70
2018-03-31T18:18:32.800Z,77.70
2018-03-31T18:21:00.221Z,77.60
2018-03-31T18:23:27.594Z,77.80
2018-03-31T18:25:54.955Z,77.70
2018-03-31T18:28:22.312Z,77.70
2018-03-31T18:30:49.674Z,77.50
2018-03-31T18:33:17.049Z,77.50
2018-03-31T18:35:44.521Z,77.40
2018-03-31T18:38:11.855Z,77.60
2018-03-31T18:40:39.209Z,77.40
2018-03-31T18:43:06.730Z,77.30
2018-03-31T18:45:34.324Z,77.10
2018-03-31T18:48:01.632Z,76.80
2018-03-31T18:50:29.248Z,77.10
2018-03-31T18:52:56.650Z,77.20
2018-03-31T18:55:24.002Z,77.40
2018-03-31T18:57:51.385Z,77.00
2018-03-31T19:00:18.739Z,77.20
2018-03-31T19:02:46.126Z,77.00
2018-03-31T19:05:13.471Z,77.20
2018-03-31T19:07:40.826Z,77.30
2018-03-31T19:10:08.245Z,77.50
2018-03-31T19:12:35.618Z,77.30
2018-03-31T19:15:02.990Z,77.40
2018-03-31T19:17:30.349Z,77.60
2018-03-31T19:19:57.706Z,77.90
2018-03-31T19:22:25.045Z,77.80
2018-03-31T19:24:57.804Z,77.80
2018-03-31T19:27:25.172Z,77.80
2018-03-31T19:29:52.534Z,77.80
2018-03-31T19:32:19.882Z,77.90
2018-03-31T19:34:47.236Z,77.60
2018-03-31T19:37:14.601Z,77.80
2018-03-31T19:39:47.824Z,77.90
2018-03-31T19:42:15.181Z,78.20
2018-03-31T19:44:43.285Z,78.20
2018-03-31T19:47:10.648Z,78.20
2018-03-31T19:49:38.019Z,78.10
2018-03-31T19:52:05.393Z,77.90
2018-03-31T19:54:32.754Z,78.20
2018-03-31T19:57:00.179Z,78.10
2018-03-31T19:59:27.527Z,78.20
2018-03-31T20:01:54.880Z,78.20
2018-03-31T20:04:22.247Z,78.30
2018-03-31T20:06:49.587Z,78.30
2018-03-31T20:09:16.953Z,78.40
2018-03-31T20:11:44.315Z,78.40
2018-03-31T20:14:11.671Z,78.40
2018-03-31T20:16:39.028Z,78.40
2018-03-31T20:19:06.799Z,78.70
2018-03-31T20:21:34.155Z,78.70
2018-03-31T20:24:01.509Z,78.50
2018-03-31T20:26:29.554Z,78.70
2018-03-31T20:28:56.931Z,78.80
2018-03-31T20:31:24.297Z,78.90
2018-03-31T20:33:51.653Z,78.80
2018-03-31T20:36:19.019Z,78.40
2018-03-31T20:38:46.373Z,78.40
2018-03-31T20:41:13.725Z,78.60
2018-03-31T20:43:41.188Z,78.70
2018-03-31T20:46:08.544Z,79.70
2018-03-31T20:48:35.918Z,78.80
2018-03-31T20:51:03.258Z,78.70
2018-03-31T20:53:30.620Z,78.70
2018-03-31T20:55:58.728Z,78.50
2018-03-31T20:58:26.094Z,78.50
2018-03-31T21:00:53.438Z,78.50
2018-03-31T21:03:20.830Z,78.50
2018-03-31T21:05:48.238Z,78.70
2018-03-31T21:08:15.593Z,78.60
2018-03-31T21:10:43.176Z,78.90
2018-03-31T21:13:10.534Z,79.20
2018-03-31T21:15:37.907Z,79.10
2018-03-31T21:18:05.262Z,79.20
2018-03-31T21:20:32.624Z,79.20
2018-03-31T21:22:59.974Z,79.20
2018-03-31T21:25:27.325Z,79.30
2018-03-31T21:27:54.685Z,79.30
2018-03-31T21:30:22.031Z,79.30
2018-03-31T21:32:49.877Z,79.40
2018-03-31T21:35:17.236Z,79.50
2018-03-31T21:37:44.573Z,79.60
2018-03-31T21:40:12.543Z,79.70
2018-03-31T21:42:39.905Z,79.70
2018-03-31T21:45:07.251Z,79.80
2018-03-31T21:47:34.744Z,79.90
2018-03-31T21:50:02.385Z,80.00
2018-03-31T21:52:29.726Z,80.20
2018-03-31T21:54:57.076Z,80.30
2018-03-31T21:57:24.409Z,80.30
2018-03-31T21:59:51.764Z,80.40
2018-03-31T22:02:19.094Z,80.30
2018-03-31T22:04:46.462Z,80.30
2018-03-31T22:07:14.636Z,80.60
2018-03-31T22:09:41.943Z,80.40
2018-03-31T22:12:09.298Z,80.40
2018-03-31T22:14:42.189Z,80.50
2018-03-31T22:17:09.536Z,80.60
2018-03-31T22:19:36.892Z,80.60
2018-03-31T22:22:04.263Z,80.60
2018-03-31T22:24:32.264Z,80.50
2018-03-31T22:27:00.390Z,80.60
2018-03-31T22:29:27.735Z,80.50
2018-03-31T22:31:55.082Z,80.50
2018-03-31T22:34:22.441Z,80.60
2018-03-31T22:36:49.773Z,80.50
2018-03-31T22:39:17.156Z,80.60
2018-03-31T22:41:44.510Z,80.70
2018-03-31T22:44:11.897Z,80.60
2018-03-31T22:46:39.242Z,80.20
2018-03-31T22:49:06.669Z,80.30
2018-03-31T22:51:34.017Z,80.30
2018-03-31T22:54:01.885Z,80.30
2018-03-31T22:56:29.245Z,80.20
2018-03-31T22:58:56.591Z,80.20
2018-03-31T23:01:24.131Z,80.30
2018-03-31T23:03:51.419Z,80.30
2018-03-31T23:06:18.769Z,80.10
2018-03-31T23:08:46.132Z,80.30
2018-03-31T23:11:13.511Z,80.20
2018-03-31T23:13:40.853Z,80.00
2018-03-31T23:16:08.216Z,80.00
2018-03-31T23:18:35.593Z,80.10
2018-03-31T23:21:02.953Z,80.00
2018-03-31T23:23:31.139Z,79.50
2018-03-31T23:25:58.607Z,79.50
2018-03-31T23:28:25.961Z,79.70
2018-03-31T23:30:53.579Z,79.70
2018-03-31T23:33:20.936Z,79.50
2018-03-31T23:35:48.294Z,79.40
2018-03-31T23:38:15.638Z,79.60
2018-03-31T23:40:42.988Z,79.60
2018-03-31T23:43:10.330Z,79.50
2018-03-31T23:45:37.793Z,79.60
2018-03-31T23:48:05.154Z,79.60
2018-03-31T23:50:32.510Z,79.60
2018-03-31T23:52:59.858Z,79.70
2018-03-31T23:55:27.210Z,79.60
2018-03-31T23:57:54.572Z,79.60
